Time;durP1;ratioP1;P1;durP2;ratioP2;P2;SDS_P1;SDS_P2;PMS_P1;PMS_P2;Temp;Humidity;BMP_temperature;BMP_pressure;BME280_temperature;BME280_humidity;BME280_pressure;Samples;Min_cycle;Max_cycle;Signal;HPM_P1;HPM_P2
2022/05/29 00:01:27;;;;;;;;;;;;;;;10.79;68.59;101828.38;4975139;28;19926;-77
2022/05/29 00:03:52;;;;;;;;;;;;;;;10.82;68.32;101825.34;4975004;28;19918;-76
2022/05/29 00:06:18;;;;;;;;;;;;;;;10.88;68.56;101824.72;4975055;28;19918;-76
2022/05/29 00:08:43;;;;;;;;;;;;;;;10.96;67.75;101824.78;4975119;28;20108;-77
2022/05/29 00:11:09;;;;;;;;;;;;;;;10.97;66.40;101824.59;4974373;28;20390;-77
2022/05/29 00:13:35;;;;;;;;;;;;;;;10.96;66.66;101825.59;4957632;28;19994;-76
2022/05/29 00:16:00;;;;;;;;;;;;;;;10.94;66.37;101822.22;4975174;28;20425;-75
2022/05/29 00:18:25;;;;;;;;;;;;;;;11.00;64.72;101826.13;4975467;28;19965;-77
2022/05/29 00:20:52;;;;;;;;;;;;;;;11.00;65.12;101818.03;4975151;28;19918;-76
2022/05/29 00:23:17;;;;;;;;;;;;;;;10.99;64.02;101816.38;4975471;28;20353;-76
2022/05/29 00:25:43;;;;;;;;;;;;;;;11.02;62.87;101813.34;4975649;28;19937;-76
2022/05/29 00:28:08;;;;;;;;;;;;;;;11.03;62.73;101811.50;4957910;28;20005;-77
2022/05/29 00:30:33;;;;;;;;;;;;;;;11.07;61.38;101808.31;4975159;28;20052;-76
2022/05/29 00:32:58;;;;;;;;;;;;;;;11.10;61.21;101804.47;4975698;28;20369;-76
2022/05/29 00:35:24;;;;;;;;;;;;;;;11.12;60.44;101803.28;4975440;28;20421;-77
2022/05/29 00:37:49;;;;;;;;;;;;;;;11.13;59.93;101804.13;4985229;28;19918;-75
2022/05/29 00:40:26;;;;;;;;;;;;;;;11.10;60.88;101799.06;4978771;28;19921;-74
2022/05/29 00:42:51;;;;;;;;;;;;;;;11.15;59.96;101802.13;4976612;28;20005;-76
2022/05/29 00:45:20;;;;;;;;;;;;;;;11.18;59.30;101797.25;4975519;28;20025;-76
2022/05/29 00:47:45;;;;;;;;;;;;;;;11.15;59.98;101792.19;4975015;28;19925;-76
2022/05/29 00:50:11;;;;;;;;;;;;;;;11.15;60.43;101785.97;4974802;28;19917;-76
2022/05/29 00:52:36;;;;;;;;;;;;;;;11.14;61.40;101784.28;4974440;28;20008;-76
2022/05/29 00:55:02;;;;;;;;;;;;;;;11.10;62.30;101794.53;4956761;28;19926;-76
2022/05/29 00:57:32;;;;;;;;;;;;;;;11.11;62.99;101785.44;4975435;28;19922;-76
2022/05/29 01:00:03;;;;;;;;;;;;;;;11.07;64.08;101780.53;4967230;28;19922;-77
2022/05/29 01:02:28;;;;;;;;;;;;;;;11.05;65.51;101775.31;4975936;28;19965;-76
2022/05/29 01:04:53;;;;;;;;;;;;;;;11.07;65.80;101772.47;4974332;28;20338;-76
2022/05/29 01:07:19;;;;;;;;;;;;;;;11.08;67.04;101769.59;4956872;28;19918;-74
2022/05/29 01:09:44;;;;;;;;;;;;;;;11.14;66.72;101770.81;4957172;28;20021;-74
2022/05/29 01:12:17;;;;;;;;;;;;;;;11.17;66.90;101774.00;4956618;28;19966;-75
2022/05/29 01:14:42;;;;;;;;;;;;;;;11.23;66.86;101766.28;4956668;28;20373;-76
2022/05/29 01:17:10;;;;;;;;;;;;;;;11.25;66.87;101769.66;4973320;28;19972;-74
2022/05/29 01:19:54;;;;;;;;;;;;;;;11.28;66.83;101763.94;4973811;28;19973;-75
2022/05/29 01:22:25;;;;;;;;;;;;;;;11.25;67.73;101766.97;4973875;28;19922;-74
2022/05/29 01:25:09;;;;;;;;;;;;;;;11.20;67.33;101765.59;4954061;28;19925;-77
2022/05/29 01:27:35;;;;;;;;;;;;;;;11.23;67.33;101760.91;4972600;28;19918;-74
2022/05/29 01:30:09;;;;;;;;;;;;;;;11.29;67.10;101757.53;4973010;28;19918;-74
2022/05/29 01:32:43;;;;;;;;;;;;;;;11.27;67.39;101757.72;4972870;28;20013;-76
2022/05/29 01:35:10;;;;;;;;;;;;;;;11.28;67.80;101751.31;4956646;28;19968;-75
2022/05/29 01:37:43;;;;;;;;;;;;;;;11.35;67.65;101746.13;4956918;28;19918;-75
2022/05/29 01:40:10;;;;;;;;;;;;;;;11.35;67.83;101738.88;4974349;28;20347;-75
2022/05/29 01:42:36;;;;;;;;;;;;;;;11.41;67.48;101748.16;4973392;28;19980;-75
2022/05/29 01:45:12;;;;;;;;;;;;;;;11.42;67.37;101739.03;4955776;28;19961;-76
2022/05/29 01:47:39;;;;;;;;;;;;;;;11.42;67.36;101736.34;4972885;28;19922;-76
2022/05/29 01:50:06;;;;;;;;;;;;;;;11.42;67.54;101734.47;4955762;28;19918;-76
2022/05/29 01:52:33;;;;;;;;;;;;;;;11.42;67.80;101729.09;4965479;28;19914;-74
2022/05/29 01:55:06;;;;;;;;;;;;;;;11.44;67.87;101731.63;4955883;28;19914;-75
2022/05/29 01:57:39;;;;;;;;;;;;;;;11.47;68.12;101736.69;4955398;28;19918;-76
2022/05/29 02:00:12;;;;;;;;;;;;;;;11.45;67.86;101727.09;4973745;28;19918;-75
2022/05/29 02:02:38;;;;;;;;;;;;;;;11.49;67.69;101728.44;4956321;28;19918;-76
2022/05/29 02:05:05;;;;;;;;;;;;;;;11.48;68.07;101727.63;4955659;28;20112;-75
2022/05/29 02:07:48;;;;;;;;;;;;;;;11.50;68.33;101722.88;4955767;28;19922;-76
2022/05/29 02:10:31;;;;;;;;;;;;;;;11.51;67.70;101721.88;4958787;28;20242;-76
2022/05/29 02:12:59;;;;;;;;;;;;;;;11.55;66.89;101723.22;4955484;28;19918;-75
2022/05/29 02:15:28;;;;;;;;;;;;;;;11.57;66.65;101721.22;4972828;28;19918;-75
2022/05/29 02:17:53;;;;;;;;;;;;;;;11.52;66.61;101718.16;4955959;28;19922;-75
2022/05/29 02:20:24;;;;;;;;;;;;;;;11.52;65.16;101717.31;4965870;28;20425;-75
2022/05/29 02:22:49;;;;;;;;;;;;;;;11.53;64.70;101724.41;4954973;28;19945;-76
2022/05/29 02:25:15;;;;;;;;;;;;;;;11.56;64.62;101719.53;4957267;28;19933;-76
2022/05/29 02:27:41;;;;;;;;;;;;;;;11.54;66.16;101720.72;4962726;28;19972;-75
2022/05/29 02:30:06;;;;;;;;;;;;;;;11.54;65.97;101713.47;4975110;28;19918;-75
2022/05/29 02:32:31;;;;;;;;;;;;;;;11.55;66.06;101711.59;4973077;28;20286;-75
2022/05/29 02:35:02;;;;;;;;;;;;;;;11.57;66.87;101702.34;4973281;28;19926;-75
2022/05/29 02:37:30;;;;;;;;;;;;;;;11.70;66.66;101701.84;4974373;28;19918;-75
2022/05/29 02:40:08;;;;;;;;;;;;;;;11.70;66.77;101706.41;4973664;28;20073;-75
2022/05/29 02:42:39;;;;;;;;;;;;;;;11.67;67.56;101709.44;4973776;28;19918;-76
2022/05/29 02:45:10;;;;;;;;;;;;;;;11.66;67.94;101697.78;4955616;28;19918;-75
2022/05/29 02:47:41;;;;;;;;;;;;;;;11.77;67.61;101699.28;4972901;28;19941;-75
2022/05/29 02:50:15;;;;;;;;;;;;;;;11.75;66.89;101699.47;4962986;28;19978;-75
2022/05/29 02:52:40;;;;;;;;;;;;;;;11.74;67.62;101702.34;4981795;28;19926;-77
2022/05/29 02:55:06;;;;;;;;;;;;;;;11.69;70.20;101700.16;4946348;28;19924;-76
2022/05/29 02:57:31;;;;;;;;;;;;;;;11.56;70.27;101706.06;4958439;28;19962;-75
2022/05/29 02:59:57;;;;;;;;;;;;;;;11.41;70.66;101694.22;4972809;28;19969;-75
2022/05/29 03:02:34;;;;;;;;;;;;;;;11.32;70.99;101716.78;4956028;28;20362;-75
2022/05/29 03:05:13;;;;;;;;;;;;;;;11.23;71.86;101709.69;4973007;28;19926;-76
2022/05/29 03:07:41;;;;;;;;;;;;;;;11.09;72.42;101706.63;4955536;28;19917;-76
2022/05/29 03:10:09;;;;;;;;;;;;;;;10.96;73.51;101706.25;4972857;28;19917;-75
2022/05/29 03:13:04;;;;;;;;;;;;;;;10.90;74.61;101710.44;4972869;28;19918;-76
2022/05/29 03:15:32;;;;;;;;;;;;;;;10.86;74.63;101713.63;4903590;28;20163;-75
2022/05/29 03:18:20;;;;;;;;;;;;;;;10.79;74.51;101710.72;4972328;28;19922;-75
2022/05/29 03:20:49;;;;;;;;;;;;;;;10.80;74.92;101723.19;4955210;28;20370;-76
2022/05/29 03:23:19;;;;;;;;;;;;;;;10.84;75.67;101715.63;4971979;28;20271;-75
2022/05/29 03:25:46;;;;;;;;;;;;;;;10.80;77.32;101719.66;4954505;28;20366;-75
2022/05/29 03:28:13;;;;;;;;;;;;;;;10.75;78.97;101712.06;4954766;28;19924;-76
2022/05/29 03:30:39;;;;;;;;;;;;;;;10.70;80.17;101709.03;4955002;28;19957;-76
2022/05/29 03:33:06;;;;;;;;;;;;;;;10.64;82.12;101697.06;4954652;28;19976;-75
2022/05/29 03:35:36;;;;;;;;;;;;;;;10.61;83.59;101689.31;4954067;28;20001;-76
2022/05/29 03:38:03;;;;;;;;;;;;;;;10.54;84.43;101696.31;4974530;28;20417;-76
2022/05/29 03:40:28;;;;;;;;;;;;;;;10.51;84.49;101691.28;4975802;28;20361;-75
2022/05/29 03:42:54;;;;;;;;;;;;;;;10.52;83.88;101690.25;4958904;28;19918;-75
2022/05/29 03:45:19;;;;;;;;;;;;;;;10.46;83.72;101677.44;4977048;28;19979;-76
2022/05/29 03:47:44;;;;;;;;;;;;;;;10.48;83.90;101678.13;4975135;28;19980;-75
2022/05/29 03:50:11;;;;;;;;;;;;;;;10.50;84.08;101684.19;4974770;28;19922;-75
2022/05/29 03:52:36;;;;;;;;;;;;;;;10.47;84.98;101685.34;4958246;28;20009;-76
2022/05/29 03:55:03;;;;;;;;;;;;;;;10.49;85.74;101675.28;4979561;28;20319;-75
2022/05/29 03:57:28;;;;;;;;;;;;;;;10.48;84.73;101675.44;4980656;28;20273;-76
2022/05/29 03:59:53;;;;;;;;;;;;;;;10.47;84.46;101673.75;4980557;28;19914;-76
2022/05/29 04:02:18;;;;;;;;;;;;;;;10.45;83.91;101671.22;4976365;28;19918;-76
2022/05/29 04:04:44;;;;;;;;;;;;;;;10.42;82.92;101671.53;4993342;28;19941;-75
2022/05/29 04:07:09;;;;;;;;;;;;;;;10.41;82.54;101671.69;4974559;28;19922;-76
2022/05/29 04:12:18;;;;;;;;;;;;;;;10.47;81.77;101663.81;4974803;28;19992;-76
2022/05/29 04:14:43;;;;;;;;;;;;;;;10.46;81.47;101661.31;4957513;28;20370;-75
2022/05/29 04:17:09;;;;;;;;;;;;;;;10.51;81.45;101664.34;4957416;28;20345;-77
2022/05/29 04:19:35;;;;;;;;;;;;;;;10.53;81.39;101654.25;4974942;28;19996;-76
2022/05/29 04:22:00;;;;;;;;;;;;;;;10.53;81.40;101656.94;4973889;28;19965;-77
2022/05/29 04:24:26;;;;;;;;;;;;;;;10.58;81.35;101657.31;4957488;28;19945;-76
2022/05/29 04:26:51;;;;;;;;;;;;;;;10.62;81.02;101663.22;4974508;28;19924;-76
2022/05/29 04:29:16;;;;;;;;;;;;;;;10.67;80.30;101656.34;4974450;28;20020;-76
2022/05/29 04:34:25;;;;;;;;;;;;;;;10.69;80.97;101657.03;4974103;28;19945;-76
2022/05/29 04:36:51;;;;;;;;;;;;;;;10.68;81.82;101659.88;4973635;28;19918;-76
2022/05/29 04:39:16;;;;;;;;;;;;;;;10.71;81.29;101664.91;4984504;28;19980;-76
2022/05/29 04:41:41;;;;;;;;;;;;;;;10.72;81.41;101656.69;4974518;28;19914;-76
2022/05/29 04:44:06;;;;;;;;;;;;;;;10.77;81.20;101648.97;4974436;28;20126;-76
2022/05/29 04:46:31;;;;;;;;;;;;;;;10.82;80.72;101650.31;4974305;28;19918;-76
2022/05/29 04:48:57;;;;;;;;;;;;;;;10.88;80.46;101644.28;4974119;28;19921;-75
2022/05/29 04:51:22;;;;;;;;;;;;;;;10.88;79.90;101644.28;4974048;28;19976;-75
2022/05/29 04:53:47;;;;;;;;;;;;;;;10.92;79.68;101643.78;4956438;28;19922;-75
2022/05/29 04:56:12;;;;;;;;;;;;;;;10.96;79.22;101647.00;4956494;28;19918;-75
2022/05/29 04:58:37;;;;;;;;;;;;;;;11.04;79.79;101649.72;4974133;28;20390;-75
2022/05/29 05:01:03;;;;;;;;;;;;;;;11.06;79.50;101647.69;4974045;28;19921;-74
2022/05/29 05:03:29;;;;;;;;;;;;;;;11.09;79.52;101641.97;4974119;28;19977;-75
2022/05/29 05:05:54;;;;;;;;;;;;;;;11.12;79.85;101647.03;4973566;28;19918;-76
2022/05/29 05:08:20;;;;;;;;;;;;;;;11.10;79.45;101643.66;4974559;28;20009;-75
2022/05/29 05:10:45;;;;;;;;;;;;;;;11.12;77.99;101638.94;4974867;28;19914;-75
2022/05/29 05:13:10;;;;;;;;;;;;;;;11.10;78.41;101635.56;4973877;28;19928;-76
2022/05/29 05:15:36;;;;;;;;;;;;;;;11.21;77.42;101640.63;4974728;28;19936;-76
2022/05/29 05:18:01;;;;;;;;;;;;;;;11.20;77.03;101643.50;4974626;28;19961;-76
2022/05/29 05:20:26;;;;;;;;;;;;;;;11.24;77.84;101649.41;4981758;28;19977;-77
2022/05/29 05:22:52;;;;;;;;;;;;;;;11.37;77.79;101644.34;4962569;28;19968;-77
2022/05/29 05:25:17;;;;;;;;;;;;;;;11.42;78.27;101644.69;4957968;28;19922;-75
2022/05/29 05:27:42;;;;;;;;;;;;;;;11.50;78.31;101649.25;4974977;28;19961;-76
2022/05/29 05:30:08;;;;;;;;;;;;;;;11.57;78.24;101639.50;4962830;28;19925;-75
2022/05/29 05:32:34;;;;;;;;;;;;;;;11.65;77.96;101651.09;4970865;28;19918;-76
2022/05/29 05:35:02;;;;;;;;;;;;;;;11.64;79.10;101643.19;4971517;28;19922;-78
2022/05/29 05:37:28;;;;;;;;;;;;;;;11.63;79.46;101645.03;4971996;28;19926;-77
2022/05/29 05:39:53;;;;;;;;;;;;;;;11.60;77.38;101650.75;4950523;28;19924;-76
2022/05/29 05:42:18;;;;;;;;;;;;;;;11.59;77.47;101650.94;4990802;28;20361;-76
2022/05/29 05:44:43;;;;;;;;;;;;;;;11.50;77.42;101650.09;4972938;28;19922;-76
2022/05/29 05:47:10;;;;;;;;;;;;;;;11.42;77.84;101650.09;4971284;28;19933;-75
2022/05/29 05:49:36;;;;;;;;;;;;;;;11.33;78.48;101643.03;4971500;28;20333;-75
2022/05/29 05:52:02;;;;;;;;;;;;;;;11.34;78.19;101645.53;4953899;28;19918;-76
2022/05/29 05:54:28;;;;;;;;;;;;;;;11.33;78.99;101649.25;4971688;28;19918;-75
2022/05/29 05:56:53;;;;;;;;;;;;;;;11.38;79.30;101646.06;4971418;28;20437;-76
2022/05/29 05:59:19;;;;;;;;;;;;;;;11.37;79.18;101636.28;4971078;28;20333;-76
2022/05/29 06:01:44;;;;;;;;;;;;;;;11.34;79.38;101637.44;4979900;28;19921;-78
2022/05/29 06:04:09;;;;;;;;;;;;;;;11.36;79.24;101640.00;4960470;28;19965;-75
2022/05/29 06:06:34;;;;;;;;;;;;;;;11.44;79.41;101637.28;4977849;28;19914;-77
2022/05/29 06:09:03;;;;;;;;;;;;;;;11.59;79.80;101640.16;4954502;28;19988;-75
2022/05/29 06:11:28;;;;;;;;;;;;;;;11.90;78.96;101634.09;4971560;28;20420;-76
2022/05/29 06:13:56;;;;;;;;;;;;;;;12.05;76.60;101632.38;4972059;28;19941;-78
2022/05/29 06:16:22;;;;;;;;;;;;;;;12.23;74.57;101629.47;4972384;28;19945;-76
2022/05/29 06:18:47;;;;;;;;;;;;;;;12.46;73.35;101632.25;4973894;28;20358;-76
2022/05/29 06:21:12;;;;;;;;;;;;;;;12.75;71.89;101631.59;4939199;28;19945;-75
2022/05/29 06:23:38;;;;;;;;;;;;;;;12.81;72.72;101635.47;4973006;28;19918;-76
2022/05/29 06:26:12;;;;;;;;;;;;;;;12.68;73.08;101636.03;4977078;28;19925;-75
2022/05/29 06:28:37;;;;;;;;;;;;;;;12.52;73.30;101636.94;4961159;28;20293;-77
2022/05/29 06:31:03;;;;;;;;;;;;;;;12.38;73.05;101632.28;4977593;28;19918;-75
2022/05/29 06:33:29;;;;;;;;;;;;;;;12.19;73.21;101633.50;4977601;28;20025;-76
2022/05/29 06:35:55;;;;;;;;;;;;;;;12.16;74.45;101633.84;4979432;28;19964;-75
2022/05/29 06:38:20;;;;;;;;;;;;;;;12.11;75.03;101636.22;4973695;28;19949;-78
2022/05/29 06:40:49;;;;;;;;;;;;;;;12.01;75.61;101639.97;4975145;28;20540;-75
2022/05/29 06:43:14;;;;;;;;;;;;;;;12.00;75.54;101646.38;4974409;28;19925;-77
2022/05/29 06:45:40;;;;;;;;;;;;;;;12.04;75.37;101646.88;4939660;28;19914;-76
2022/05/29 06:48:05;;;;;;;;;;;;;;;12.16;75.18;101636.56;4972863;28;19930;-75
2022/05/29 06:50:30;;;;;;;;;;;;;;;12.96;76.61;101633.69;4977409;28;19960;-76
2022/05/29 06:52:55;;;;;;;;;;;;;;;13.61;72.30;101629.66;4998866;28;19937;-77
2022/05/29 06:55:21;;;;;;;;;;;;;;;14.16;68.22;101639.25;4977588;28;19918;-77
2022/05/29 06:57:47;;;;;;;;;;;;;;;14.56;66.71;101629.03;4974836;28;20348;-76
2022/05/29 07:08:26;;;;;;;;;;;;;;;13.70;66.57;101633.16;4972294;28;20377;-77
2022/05/29 07:10:51;;;;;;;;;;;;;;;13.38;70.09;101635.94;4955966;28;19918;-75
2022/05/29 07:13:16;;;;;;;;;;;;;;;13.29;69.36;101626.22;4976388;28;20160;-77
2022/05/29 07:15:42;;;;;;;;;;;;;;;13.11;70.29;101629.19;4949539;28;19973;-76
2022/05/29 07:18:07;;;;;;;;;;;;;;;13.07;69.92;101621.63;4984301;28;20337;-77
2022/05/29 07:20:35;;;;;;;;;;;;;;;12.92;69.30;101621.53;4982365;28;19997;-76
2022/05/29 07:23:00;;;;;;;;;;;;;;;12.73;69.47;101615.56;4982273;28;19918;-76
2022/05/29 07:25:25;;;;;;;;;;;;;;;12.68;69.32;101619.81;4979607;28;19921;-75
2022/05/29 07:27:50;;;;;;;;;;;;;;;13.08;70.22;101620.59;4982122;28;19925;-78
2022/05/29 07:30:15;;;;;;;;;;;;;;;13.58;68.36;101621.91;4985936;28;19986;-76
2022/05/29 07:32:41;;;;;;;;;;;;;;;14.66;63.23;101624.13;4991460;28;19918;-78
2022/05/29 07:35:06;;;;;;;;;;;;;;;14.85;61.88;101628.13;4987194;28;19921;-76
2022/05/29 07:37:31;;;;;;;;;;;;;;;15.08;60.76;101617.09;4984078;28;20327;-76
2022/05/29 07:39:56;;;;;;;;;;;;;;;15.70;58.17;101623.75;4963009;28;19921;-77
2022/05/29 07:45:06;;;;;;;;;;;;;;;15.42;59.99;101629.09;4982018;28;19925;-77
2022/05/29 07:47:36;;;;;;;;;;;;;;;15.35;61.37;101623.63;4981085;28;19914;-77
2022/05/29 07:50:01;;;;;;;;;;;;;;;15.22;61.49;101619.94;4982225;28;19949;-78
2022/05/29 07:52:26;;;;;;;;;;;;;;;15.43;60.64;101625.38;4986887;28;20003;-77
2022/05/29 07:54:52;;;;;;;;;;;;;;;15.26;61.90;101623.94;4989765;28;20001;-76
2022/05/29 07:57:18;;;;;;;;;;;;;;;14.97;62.40;101617.59;4989964;28;19914;-76
2022/05/29 07:59:43;;;;;;;;;;;;;;;14.63;63.78;101623.69;4990968;28;19945;-76
2022/05/29 08:02:08;;;;;;;;;;;;;;;14.64;65.25;101631.63;4990695;28;19905;-78
2022/05/29 08:04:33;;;;;;;;;;;;;;;14.76;63.18;101620.28;4969215;28;19922;-76
2022/05/29 08:06:58;;;;;;;;;;;;;;;14.73;62.60;101612.56;4988151;28;19917;-76
2022/05/29 08:09:24;;;;;;;;;;;;;;;14.70;62.94;101625.44;4982409;28;19918;-75
2022/05/29 08:11:49;;;;;;;;;;;;;;;14.83;62.42;101623.94;4983886;28;19918;-76
2022/05/29 08:14:15;;;;;;;;;;;;;;;15.19;61.66;101628.47;4978648;28;19977;-76
2022/05/29 08:16:41;;;;;;;;;;;;;;;16.14;60.37;101627.16;4964463;28;19918;-75
2022/05/29 08:19:07;;;;;;;;;;;;;;;17.90;55.50;101616.38;4988907;28;19945;-75
2022/05/29 08:21:32;;;;;;;;;;;;;;;18.55;52.75;101621.84;4994184;28;19982;-76
2022/05/29 08:32:09;;;;;;;;;;;;;;;19.10;46.24;101626.88;4982089;28;20009;-75
2022/05/29 08:34:34;;;;;;;;;;;;;;;18.34;48.16;101631.16;4983082;28;20080;-76
2022/05/29 08:37:00;;;;;;;;;;;;;;;17.69;49.91;101623.72;4972027;28;19918;-76
2022/05/29 08:39:25;;;;;;;;;;;;;;;17.77;51.05;101628.06;4995134;28;19949;-74
2022/05/29 08:41:52;;;;;;;;;;;;;;;17.46;51.27;101626.00;4989647;28;19914;-76
2022/05/29 08:44:19;;;;;;;;;;;;;;;17.22;52.04;101620.13;4971272;28;19941;-75
2022/05/29 08:46:49;;;;;;;;;;;;;;;16.38;55.28;101632.13;4966712;28;19914;-75
2022/05/29 08:49:18;;;;;;;;;;;;;;;15.82;56.31;101629.47;4983263;28;20464;-75
2022/05/29 08:51:49;;;;;;;;;;;;;;;15.48;56.82;101636.50;4986424;28;19914;-74
2022/05/29 08:54:23;;;;;;;;;;;;;;;15.26;57.77;101634.81;4985512;28;19917;-75
2022/05/29 08:56:56;;;;;;;;;;;;;;;15.07;59.75;101639.81;4971249;28;19964;-77
2022/05/29 08:59:30;;;;;;;;;;;;;;;15.10;61.62;101639.44;4985789;28;19918;-75
2022/05/29 09:01:55;;;;;;;;;;;;;;;14.87;61.06;101647.72;4985298;28;19977;-75
2022/05/29 09:04:25;;;;;;;;;;;;;;;14.66;62.58;101639.56;4987456;28;19918;-75
2022/05/29 09:06:51;;;;;;;;;;;;;;;14.46;65.04;101634.69;4973483;28;19945;-75
2022/05/29 09:09:25;;;;;;;;;;;;;;;14.45;65.91;101632.16;4990788;28;20259;-75
2022/05/29 09:11:52;;;;;;;;;;;;;;;14.43;65.48;101629.66;4996359;28;19906;-76
2022/05/29 09:14:22;;;;;;;;;;;;;;;14.59;65.19;101631.34;4998894;28;19906;-77
2022/05/29 09:16:49;;;;;;;;;;;;;;;14.84;65.07;101625.59;4998437;28;19950;-77
2022/05/29 09:19:31;;;;;;;;;;;;;;;14.82;63.76;101624.94;4979612;28;19922;-75
2022/05/29 09:22:01;;;;;;;;;;;;;;;14.73;65.17;101632.34;4990203;28;19921;-74
2022/05/29 09:24:37;;;;;;;;;;;;;;;14.47;64.90;101630.94;4993086;28;19986;-76
2022/05/29 09:27:02;;;;;;;;;;;;;;;14.26;67.32;101623.59;4972675;28;19936;-74
2022/05/29 09:29:28;;;;;;;;;;;;;;;14.00;67.61;101620.50;4990215;28;20025;-75
2022/05/29 09:31:53;;;;;;;;;;;;;;;13.79;68.75;101616.63;4989135;28;19918;-74
2022/05/29 09:34:18;;;;;;;;;;;;;;;13.84;69.21;101616.94;4970207;28;19929;-75
2022/05/29 09:36:52;;;;;;;;;;;;;;;13.96;70.20;101624.63;4969176;28;19926;-76
2022/05/29 09:39:28;;;;;;;;;;;;;;;14.20;68.06;101624.34;4968234;28;19918;-75
2022/05/29 09:42:03;;;;;;;;;;;;;;;14.74;66.28;101614.22;4968742;28;19942;-76
2022/05/29 09:44:28;;;;;;;;;;;;;;;15.67;61.37;101615.16;4985030;28;19914;-75
2022/05/29 09:46:55;;;;;;;;;;;;;;;16.69;56.96;101619.91;4988404;28;19948;-77
2022/05/29 09:52:08;;;;;;;;;;;;;;;18.27;51.80;101622.16;4979199;28;19925;-75
2022/05/29 09:54:35;;;;;;;;;;;;;;;18.63;51.38;101616.16;4982259;28;19918;-76
2022/05/29 09:57:10;;;;;;;;;;;;;;;18.93;48.52;101618.34;4959911;28;20277;-77
2022/05/29 09:59:40;;;;;;;;;;;;;;;19.31;47.18;101618.31;4980197;28;19914;-77
2022/05/29 10:02:05;;;;;;;;;;;;;;;19.48;47.52;101615.88;4960405;28;19922;-76
2022/05/29 10:04:34;;;;;;;;;;;;;;;18.57;48.52;101615.13;4978619;28;20299;-75
2022/05/29 10:07:00;;;;;;;;;;;;;;;17.73;51.53;101627.66;4962089;28;19957;-77
2022/05/29 10:09:26;;;;;;;;;;;;;;;17.02;55.47;101619.22;4959760;28;19924;-75
2022/05/29 10:11:52;;;;;;;;;;;;;;;16.36;58.17;101626.06;4965895;28;19921;-75
2022/05/29 10:14:37;;;;;;;;;;;;;;;15.83;62.06;101616.75;4944077;28;19921;-74
2022/05/29 10:17:06;;;;;;;;;;;;;;;15.36;63.21;101619.88;4960588;28;20231;-75
2022/05/29 10:19:34;;;;;;;;;;;;;;;15.19;62.46;101623.03;4961066;28;19981;-75
2022/05/29 10:22:00;;;;;;;;;;;;;;;15.09;62.63;101617.97;4984359;28;20026;-74
2022/05/29 10:24:36;;;;;;;;;;;;;;;15.28;62.29;101605.63;4963648;28;19949;-76
2022/05/29 10:27:02;;;;;;;;;;;;;;;15.57;58.87;101612.75;4956849;28;19981;-76
2022/05/29 10:29:28;;;;;;;;;;;;;;;16.00;56.80;101601.81;4974540;28;19918;-75
2022/05/29 10:31:53;;;;;;;;;;;;;;;16.12;56.10;101596.69;4972136;28;20227;-75
2022/05/29 10:34:22;;;;;;;;;;;;;;;16.17;55.27;101605.06;4954036;28;19961;-77
2022/05/29 10:36:47;;;;;;;;;;;;;;;15.92;56.50;101613.69;4974951;28;19921;-76
2022/05/29 10:39:13;;;;;;;;;;;;;;;15.73;57.94;101617.09;4975896;28;19948;-75
2022/05/29 10:41:42;;;;;;;;;;;;;;;15.31;60.59;101616.06;4974167;28;19922;-76
2022/05/29 10:44:11;;;;;;;;;;;;;;;14.77;62.38;101611.13;4975509;28;19922;-74
2022/05/29 10:46:39;;;;;;;;;;;;;;;14.34;64.16;101619.09;4979709;28;19977;-75
2022/05/29 10:49:17;;;;;;;;;;;;;;;14.19;65.13;101611.84;4964811;28;19922;-74
2022/05/29 10:51:45;;;;;;;;;;;;;;;14.11;63.67;101613.78;4979065;28;19917;-75
2022/05/29 10:54:17;;;;;;;;;;;;;;;14.21;62.72;101609.75;4988945;28;19981;-74
2022/05/29 10:56:58;;;;;;;;;;;;;;;14.47;61.59;101612.00;4972007;28;20005;-75
2022/05/29 10:59:29;;;;;;;;;;;;;;;14.59;59.92;101606.97;4978352;28;19918;-76
2022/05/29 11:04:55;;;;;;;;;;;;;;;14.32;57.51;101600.31;4968536;28;20010;-77
2022/05/29 11:07:39;;;;;;;;;;;;;;;14.22;56.50;101603.34;4984610;28;19906;-79
2022/05/29 11:10:14;;;;;;;;;;;;;;;14.27;57.12;101610.91;4986708;28;19926;-76
2022/05/29 11:12:39;;;;;;;;;;;;;;;14.25;57.25;101613.78;4987554;28;19973;-74
2022/05/29 11:15:10;;;;;;;;;;;;;;;14.36;57.13;101603.53;4967700;28;19918;-77
2022/05/29 11:17:38;;;;;;;;;;;;;;;14.54;56.70;101614.81;4996424;28;19933;-78
2022/05/29 11:20:11;;;;;;;;;;;;;;;14.73;56.14;101607.97;4975242;28;19922;-76
2022/05/29 11:22:43;;;;;;;;;;;;;;;14.93;55.00;101608.19;4960779;29;20366;-75
2022/05/29 11:25:12;;;;;;;;;;;;;;;15.04;53.92;101606.84;4952471;28;19932;-75
2022/05/29 11:27:46;;;;;;;;;;;;;;;15.26;53.77;101602.25;4973150;28;20008;-76
2022/05/29 11:30:20;;;;;;;;;;;;;;;15.35;52.99;101606.53;4983726;28;19914;-75
2022/05/29 11:33:04;;;;;;;;;;;;;;;15.42;53.11;101604.69;4995935;28;19921;-77
2022/05/29 11:35:34;;;;;;;;;;;;;;;15.65;50.72;101603.66;5001976;28;19948;-76
2022/05/29 11:38:08;;;;;;;;;;;;;;;15.65;51.28;101590.06;4985472;28;19918;-76
2022/05/29 11:40:41;;;;;;;;;;;;;;;15.53;51.12;101593.34;4978839;28;19918;-76
2022/05/29 11:43:09;;;;;;;;;;;;;;;15.53;51.57;101587.91;4958810;28;19914;-77
2022/05/29 11:51:16;;;;;;;;;;;;;;;16.33;48.83;101571.31;4983334;28;19968;-77
2022/05/29 11:54:02;;;;;;;;;;;;;;;16.19;49.60;101579.41;4987316;28;20008;-74
2022/05/29 11:56:32;;;;;;;;;;;;;;;16.28;49.97;101571.06;4956877;28;19922;-76
2022/05/29 11:59:16;;;;;;;;;;;;;;;16.09;50.05;101575.34;4957339;28;19949;-77
2022/05/29 12:01:45;;;;;;;;;;;;;;;15.87;49.66;101575.44;4974049;28;19961;-78
2022/05/29 12:04:14;;;;;;;;;;;;;;;15.87;49.40;101571.88;4957894;28;20365;-76
2022/05/29 12:06:44;;;;;;;;;;;;;;;16.04;51.11;101572.41;4958265;28;19914;-77
2022/05/29 12:09:12;;;;;;;;;;;;;;;16.14;50.03;101567.44;4975132;28;19914;-75
2022/05/29 12:11:37;;;;;;;;;;;;;;;16.52;49.93;101567.81;4941386;28;19973;-76
2022/05/29 12:14:02;;;;;;;;;;;;;;;17.58;46.39;101572.59;4974881;28;20199;-77
2022/05/29 12:16:29;;;;;;;;;;;;;;;18.61;43.71;101572.75;4975318;28;20398;-76
2022/05/29 12:18:54;;;;;;;;;;;;;;;19.18;44.36;101580.22;4974247;28;19928;-76
2022/05/29 12:21:27;;;;;;;;;;;;;;;19.04;42.09;101574.84;4973895;28;19921;-76
2022/05/29 12:23:53;;;;;;;;;;;;;;;18.76;43.75;101571.66;4976188;28;19913;-75
2022/05/29 12:26:20;;;;;;;;;;;;;;;18.90;44.02;101570.50;4969036;28;19988;-75
2022/05/29 12:28:56;;;;;;;;;;;;;;;18.50;43.49;101561.69;4960354;28;19949;-76
2022/05/29 12:31:35;;;;;;;;;;;;;;;18.01;44.15;101563.13;4960519;28;19921;-73
2022/05/29 12:34:01;;;;;;;;;;;;;;;18.21;44.11;101564.75;4941278;28;19922;-74
2022/05/29 12:36:47;;;;;;;;;;;;;;;18.78;44.03;101564.09;4973173;28;20366;-74
2022/05/29 12:39:12;;;;;;;;;;;;;;;18.90;43.04;101565.06;4969082;28;19920;-77
2022/05/29 12:41:56;;;;;;;;;;;;;;;18.46;43.61;101565.91;4965916;28;19974;-75
2022/05/29 12:44:40;;;;;;;;;;;;;;;17.78;45.03;101576.13;4969496;28;19918;-76
2022/05/29 12:47:08;;;;;;;;;;;;;;;17.41;45.72;101574.09;4963514;28;19926;-77
2022/05/29 12:49:51;;;;;;;;;;;;;;;16.76;47.27;101571.88;4980466;28;20001;-78
2022/05/29 12:52:20;;;;;;;;;;;;;;;16.64;48.02;101568.91;4974256;28;19924;-74
2022/05/29 12:54:56;;;;;;;;;;;;;;;16.49;47.72;101565.50;4974452;28;20009;-78
2022/05/29 12:57:30;;;;;;;;;;;;;;;16.34;47.64;101554.78;4974281;28;19914;-76
2022/05/29 13:00:02;;;;;;;;;;;;;;;16.06;48.69;101568.47;4956930;28;19921;-76
2022/05/29 13:02:27;;;;;;;;;;;;;;;15.93;50.09;101557.50;4974417;28;19957;-76
2022/05/29 13:04:57;;;;;;;;;;;;;;;15.98;50.10;101557.75;4974515;28;19968;-75
2022/05/29 13:07:30;;;;;;;;;;;;;;;16.33;48.37;101555.84;4957585;28;19914;-75
2022/05/29 13:10:00;;;;;;;;;;;;;;;16.84;48.01;101562.72;4940842;28;19936;-77
2022/05/29 13:12:30;;;;;;;;;;;;;;;17.04;46.47;101555.44;4940570;28;19937;-75
2022/05/29 13:14:56;;;;;;;;;;;;;;;17.14;46.92;101554.16;4956883;28;19918;-74
2022/05/29 13:17:29;;;;;;;;;;;;;;;17.47;47.05;101546.03;4957086;28;19918;-77